Flight Track Log - Related Links

Times and Time Zones

All times are in EST time to prevent confusion due to time zone crossing. See the EJA829P flight status page for this flight to view local times or setup timezone preferences in your user account.

Time Position Orientation Groundspeed Altitude Reporting Facility
EST Latitude Longitude Course Direction KTS MPH feet Rate Location/Type
Sun 03:55:57 PM 47.5225 -122.2950 144° Southeast 169 194 800  Level Seattle Center
Sun 03:56:40 PM 47.4919 -122.2625 144° Southeast 193 222 3,900 3,122 Climbing Seattle Center
Sun 03:57:35 PM 47.4442 -122.2233 151° Southeast 222 255 5,900 1,465 Climbing Seattle Center
Sun 03:58:06 PM 47.4158 -122.2372 198° South 207 238 6,000 652 Climbing Seattle Center
Sun 03:59:07 PM 47.3892 -122.3181 244° Southwest 220 253 6,900 2,852 Climbing Seattle Center
Sun 04:00:08 PM 47.3661 -122.4239 252° West 268 308 11,800 3,934 Climbing Seattle Center
Sun 04:01:09 PM 47.3406 -122.5397 252° West 295 339 14,900 3,049 Climbing Seattle Center
Sun 04:02:10 PM 47.3119 -122.6719 252° West 325 374 18,000 3,443 Climbing Seattle Center
Sun 04:03:11 PM 47.2847 -122.7953 252° West 317 365 21,900 3,639 Climbing Seattle Center
Sun 04:04:12 PM 47.2569 -122.9211 252° West 321 369 25,400 3,148 Climbing Seattle Center
Sun 04:05:13 PM 47.1894 -123.0158 224° Southwest 361 415 28,300 2,780 Climbing Seattle Center
Sun 04:06:15 PM 47.0775 -123.0144 180° South 397 457 31,100 2,098 Climbing Seattle Center
Sun 04:07:16 PM 46.9631 -123.0119 179° South 410 472 32,600 934 Climbing Seattle Center
Sun 04:08:17 PM 46.8422 -123.0094 179° South 431 496 33,000 197 Climbing Seattle Center
Sun 04:09:18 PM 46.7156 -123.0053 179° South 454 522 33,000  Level Seattle Center
Sun 04:10:19 PM 46.5900 -123.0053 180° South 454 522 33,000  Level Seattle Center
Sun 04:11:20 PM 46.4628 -123.0022 179° South 456 525 33,000  Level Seattle Center
Sun 04:12:21 PM 46.3108 -122.9992 179° South 456 525 33,000  Level Seattle Center
Sun 04:13:22 PM 46.1839 -122.9969 179° South 456 525 33,000  Level Seattle Center
Sun 04:14:23 PM 46.0783 -122.9956 179° South 455 524 33,000  Level Seattle Center
Sun 04:15:24 PM 45.9517 -122.9933 179° South 453 521 33,000  Level Seattle Center
Sun 04:16:25 PM 45.7994 -122.9906 179° South 455 524 33,000  Level Seattle Center
Sun 04:17:26 PM 45.6717 -122.9850 178° South 458 527 33,000  Level Seattle Center
Sun 04:18:27 PM 45.5444 -122.9831 179° South 456 525 33,000  Level Seattle Center
Sun 04:19:28 PM 45.4169 -122.9778 178° South 459 528 33,000  Level Seattle Center
Sun 04:20:29 PM 45.2872 -122.9750 179° South 461 531 33,000  Level Seattle Center
Sun 04:21:30 PM 45.1589 -122.9717 179° South 460 529 33,000  Level Seattle Center
Sun 04:22:30 PM 45.0317 -122.9689 179° South 455 524 33,000  Level Seattle Center
Sun 04:23:31 PM 44.9047 -122.9658 179° South 454 522 33,000  Level Seattle Center
Sun 04:24:32 PM 44.7783 -122.9614 179° South 450 518 33,000  Level Seattle Center
Sun 04:25:33 PM 44.6525 -122.9581 179° South 450 518 33,000  Level Seattle Center
Sun 04:26:34 PM 44.5269 -122.9550 179° South 450 518 33,000  Level Seattle Center
Sun 04:27:35 PM 44.4025 -122.9522 179° South 447 514 33,000  Level Seattle Center
Sun 04:28:36 PM 44.2817 -122.9494 179° South 443 510 33,000  Level Seattle Center
Sun 04:29:37 PM 44.1575 -122.9472 179° South 441 507 33,000  Level Seattle Center
Sun 04:30:38 PM 44.0344 -122.9450 179° South 439 505 33,000  Level Seattle Center
Sun 04:31:39 PM 43.9117 -122.9419 179° South 438 504 33,000  Level Seattle Center
Sun 04:32:40 PM 43.7647 -122.9381 179° South 439 505 33,000  Level Seattle Center
Sun 04:33:41 PM 43.6453 -122.9358 179° South 432 497 33,000  Level Seattle Center
Sun 04:34:42 PM 43.5250 -122.9331 179° South 431 496 33,000  Level Seattle Center
Sun 04:35:43 PM 43.4050 -122.9308 179° South 432 497 33,000  Level Seattle Center
Sun 04:36:44 PM 43.2844 -122.9278 179° South 433 498 33,000  Level Seattle Center
Sun 04:37:45 PM 43.1650 -122.9261 179° South 429 494 33,000  Level Seattle Center
Sun 04:38:46 PM 43.0450 -122.9233 179° South 431 496 33,000  Level Seattle Center
Sun 04:39:47 PM 42.9253 -122.9197 179° South 431 496 33,000  Level Seattle Center
Sun 04:40:48 PM 42.8058 -122.9189 180° South 429 494 33,000  Level Seattle Center
Sun 04:41:49 PM 42.6728 -122.9150 179° South 427 491 33,000  Level Seattle Center
Sun 04:42:50 PM 42.5539 -122.9139 180° South 428 493 33,000  Level Seattle Center
Sun 04:43:51 PM 42.4361 -122.8986 175° South 427 491 33,000  Level Seattle Center
Sun 04:44:52 PM 42.3164 -122.8642 168° South 439 505 33,000  Level Seattle Center
Sun 04:45:52 PM 42.1983 -122.8275 167° South 439 505 33,000  Level Seattle Center
Sun 04:46:53 PM 42.0781 -122.7942 168° South 442 509 33,000  Level Seattle Center
Sun 04:47:54 PM 41.9608 -122.7603 168° South 436 502 33,000  Level Seattle Center
Sun 04:48:55 PM 41.8481 -122.7289 168° South 419 482 33,000  Level Seattle Center
Sun 04:49:56 PM 41.7339 -122.6961 168° South 423 487 33,000  Level Seattle Center
Sun 04:50:57 PM 41.6228 -122.6642 168° South 414 476 33,000  Level Seattle Center
Sun 04:51:58 PM 41.4872 -122.6244 168° South 416 479 33,000  Level Seattle Center
Sun 04:52:59 PM 41.3886 -122.5972 168° South 411 473 33,000  Level Seattle Center
Sun 04:53:44 PM 41.2992 -122.5847 174° South 403 464 33,000  Level Oakland Center
Sun 04:54:45 PM 41.1897 -122.5742 176° South 396 456 33,000  Level Oakland Center
Sun 04:55:47 PM 41.0803 -122.5642 176° South 395 455 33,000  Level Oakland Center
Sun 04:56:48 PM 40.9706 -122.5508 175° South 395 455 33,000  Level Oakland Center
Sun 04:57:50 PM 40.8594 -122.5389 175° South 399 459 33,000  Level Oakland Center
Sun 04:58:51 PM 40.7272 -122.5261 176° South 397 457 33,000  Level Oakland Center
Sun 04:59:52 PM 40.6164 -122.5150 176° South 400 460 33,000  Level Oakland Center
Sun 05:00:54 PM 40.5064 -122.5044 176° South 399 459 33,000  Level Oakland Center
Sun 05:01:55 PM 40.3964 -122.4931 175° South 398 458 33,000  Level Oakland Center
Sun 05:02:57 PM 40.2861 -122.4828 176° South 400 460 33,000  Level Oakland Center
Sun 05:03:58 PM 40.1767 -122.4719 176° South 401 461 33,000  Level Oakland Center
Sun 05:05:00 PM 40.0464 -122.4597 176° South 403 464 33,000  Level Oakland Center
Sun 05:06:01 PM 39.9367 -122.4492 176° South 401 461 33,000 -836 Level Oakland Center
Sun 05:07:02 PM 39.8225 -122.4372 175° South 410 472 31,300 -1,805 Descending Oakland Center
Sun 05:08:04 PM 39.6992 -122.4247 176° South 436 502 29,300 -2,049 Descending Oakland Center
Sun 05:09:05 PM 39.5742 -122.4128 176° South 448 516 27,100 -2,341 Descending Oakland Center
Sun 05:10:07 PM 39.4431 -122.4000 176° South 440 506 24,500 -2,488 Descending Oakland Center
Sun 05:11:08 PM 39.3286 -122.3872 175° South 421 484 22,000 -2,439 Descending Oakland Center
Sun 05:12:10 PM 39.2192 -122.3783 176° South 403 464 19,500 -2,390 Descending Oakland Center
Sun 05:13:11 PM 39.1164 -122.3669 175° South 380 437 17,100 -2,146 Descending Oakland Center
Sun 05:14:13 PM 39.0150 -122.3572 176° South 369 425 15,100 -2,195 Descending Oakland Center
Sun 05:15:14 PM 38.8964 -122.3458 176° South 360 414 12,600 -2,195 Descending Oakland Center
Sun 05:16:16 PM 38.8011 -122.3372 176° South 349 402 10,600 -1,951 Descending Oakland Center
Sun 05:17:17 PM 38.7131 -122.3286 176° South 328 377 8,600 -1,659 Descending Oakland Center
Sun 05:18:19 PM 38.6372 -122.3208 175° South 306 352 7,200 -829 Descending Oakland Center
Sun 05:19:20 PM 38.5592 -122.3144 176° South 286 329 6,900 -244 Descending Oakland Center
Sun 05:20:22 PM 38.4808 -122.3058 175° South 282 325 6,700 -1,463 Descending Oakland Center
Sun 05:21:23 PM 38.3942 -122.2842 169° South 268 308 3,900 -1,951 Descending Oakland Center
Sun 05:22:25 PM 38.3314 -122.2697 170° South 243 280 2,700 -1,171 Descending Oakland Center
Sun 05:23:26 PM 38.2769 -122.2664 177° South 215 247 1,500 -1,122 Descending Oakland Center
Sun 05:24:28 PM 38.2361 -122.2722 186° South 180 207 400 -1,065 Descending Oakland Center

Login

Don't have an account? Register now (free) for customized features, flight alerts, and more!